Time;durP1;ratioP1;P1;durP2;ratioP2;P2;SDS_P1;SDS_P2;PMS_P1;PMS_P2;Temp;Humidity;BMP_temperature;BMP_pressure;BME280_temperature;BME280_humidity;BME280_pressure;Samples;Min_cycle;Max_cycle;Signal;HPM_P1;HPM_P2
2022/09/13 00:01:41;;;;;;;;;;;18.90;99.90;;;;;;5063845;28;19917;-66
2022/09/13 00:04:07;;;;;;;;;;;18.80;99.90;;;;;;5066129;28;19928;-66
2022/09/13 00:06:32;;;;;;;;;;;18.80;99.90;;;;;;5049470;28;19921;-65
2022/09/13 00:09:00;;;;;;;;;;;18.80;99.90;;;;;;5070314;28;19927;-65
2022/09/13 00:11:27;;;;;;;;;;;18.80;99.90;;;;;;5059611;28;19995;-64
2022/09/13 00:13:53;;;;;;;;;;;18.80;99.90;;;;;;5066769;28;19916;-65
2022/09/13 00:16:20;;;;;;;;;;;18.80;99.90;;;;;;5069701;28;19935;-65
2022/09/13 00:18:46;;;;;;;;;;;18.80;99.90;;;;;;5069571;28;19913;-65
2022/09/13 00:21:13;;;;;;;;;;;18.70;99.90;;;;;;5066906;28;20398;-65
2022/09/13 00:23:40;;;;;;;;;;;18.70;99.90;;;;;;5065722;28;20734;-65
2022/09/13 00:26:08;;;;;;;;;;;18.60;99.90;;;;;;5063635;28;19971;-65
2022/09/13 00:28:34;;;;;;;;;;;18.60;99.90;;;;;;5062678;28;19925;-64
2022/09/13 00:31:04;;;;;;;;;;;18.50;99.90;;;;;;5069691;28;20431;-65
2022/09/13 00:33:30;;;;;;;;;;;18.50;99.90;;;;;;5070635;28;20378;-65
2022/09/13 00:35:56;;;;;;;;;;;18.50;99.90;;;;;;5049645;28;19963;-66
2022/09/13 00:38:22;;;;;;;;;;;18.40;99.90;;;;;;5070517;28;19924;-65
2022/09/13 00:40:47;;;;;;;;;;;18.40;99.90;;;;;;5051019;28;19920;-66
2022/09/13 00:43:16;;;;;;;;;;;18.30;99.90;;;;;;5073728;28;19917;-65
2022/09/13 00:45:41;;;;;;;;;;;18.30;99.90;;;;;;5069863;28;19920;-65
2022/09/13 00:48:12;;;;;;;;;;;18.30;99.90;;;;;;5069809;28;19920;-65
2022/09/13 00:50:41;;;;;;;;;;;18.30;99.90;;;;;;5066387;28;19959;-65
2022/09/13 00:53:17;;;;;;;;;;;18.30;99.90;;;;;;5068200;28;19912;-65
2022/09/13 00:55:45;;;;;;;;;;;18.30;99.90;;;;;;5060561;28;20419;-66
2022/09/13 00:58:17;;;;;;;;;;;18.30;99.90;;;;;;5060231;28;19920;-65
2022/09/13 01:00:43;;;;;;;;;;;18.30;99.90;;;;;;5064164;28;19913;-65
2022/09/13 01:03:11;;;;;;;;;;;18.30;99.90;;;;;;5067255;28;19920;-65
2022/09/13 01:05:39;;;;;;;;;;;18.30;99.90;;;;;;5063978;28;19913;-66
2022/09/13 01:08:14;;;;;;;;;;;18.30;99.90;;;;;;5066048;28;19921;-66
2022/09/13 01:10:40;;;;;;;;;;;18.40;99.90;;;;;;5063417;28;19912;-65
2022/09/13 01:13:13;;;;;;;;;;;18.40;99.90;;;;;;5059273;28;19916;-66
2022/09/13 01:15:40;;;;;;;;;;;18.30;99.90;;;;;;5057501;28;19913;-65
2022/09/13 01:18:06;;;;;;;;;;;18.50;99.90;;;;;;5069905;28;19913;-66
2022/09/13 01:20:39;;;;;;;;;;;18.50;99.90;;;;;;5062087;28;20308;-66
2022/09/13 01:23:30;;;;;;;;;;;18.60;99.90;;;;;;5071062;28;19920;-65
2022/09/13 01:26:01;;;;;;;;;;;18.60;99.90;;;;;;5065739;28;20029;-66
2022/09/13 01:28:26;;;;;;;;;;;18.60;99.90;;;;;;5058342;28;19924;-65
2022/09/13 01:31:13;;;;;;;;;;;18.60;99.90;;;;;;5065379;28;19913;-66
2022/09/13 01:33:41;;;;;;;;;;;18.50;99.90;;;;;;5059397;28;19927;-65
2022/09/13 01:36:31;;;;;;;;;;;18.50;99.90;;;;;;5065587;28;19913;-65
2022/09/13 01:39:00;;;;;;;;;;;18.50;99.90;;;;;;5069092;28;20018;-65
2022/09/13 01:41:34;;;;;;;;;;;18.50;99.90;;;;;;5040676;28;19974;-65
2022/09/13 01:44:10;;;;;;;;;;;18.50;99.90;;;;;;5065883;28;19938;-66
2022/09/13 01:46:48;;;;;;;;;;;18.40;99.90;;;;;;5068720;28;19912;-66
2022/09/13 01:49:18;;;;;;;;;;;18.50;99.90;;;;;;5062378;28;19928;-65
2022/09/13 01:51:48;;;;;;;;;;;18.40;99.90;;;;;;5069653;28;19924;-66
2022/09/13 01:54:37;;;;;;;;;;;18.40;99.90;;;;;;5069203;28;19944;-65
2022/09/13 01:57:08;;;;;;;;;;;18.40;99.90;;;;;;5038430;28;19940;-65
2022/09/13 01:59:57;;;;;;;;;;;18.40;99.90;;;;;;5062182;28;19951;-65
2022/09/13 02:02:27;;;;;;;;;;;18.30;99.90;;;;;;5054665;28;20255;-65
2022/09/13 02:04:55;;;;;;;;;;;18.30;99.90;;;;;;5071204;28;19919;-65
2022/09/13 02:07:25;;;;;;;;;;;18.30;99.90;;;;;;5061435;28;19925;-65
2022/09/13 02:09:55;;;;;;;;;;;18.30;99.90;;;;;;5070789;28;19913;-65
2022/09/13 02:12:23;;;;;;;;;;;18.30;99.90;;;;;;5052715;28;19912;-65
2022/09/13 02:15:14;;;;;;;;;;;18.30;99.90;;;;;;5070925;28;19912;-65
2022/09/13 02:17:48;;;;;;;;;;;18.30;99.90;;;;;;5063253;28;20582;-64
2022/09/13 02:20:25;;;;;;;;;;;18.30;99.90;;;;;;5065500;28;19917;-65
2022/09/13 02:22:52;;;;;;;;;;;18.30;99.90;;;;;;5070819;28;19969;-64
2022/09/13 02:25:20;;;;;;;;;;;18.30;99.90;;;;;;5067074;28;19934;-64
2022/09/13 02:27:46;;;;;;;;;;;18.30;99.90;;;;;;5069200;28;19970;-65
2022/09/13 02:30:13;;;;;;;;;;;18.30;99.90;;;;;;5070927;28;20366;-65
2022/09/13 02:32:56;;;;;;;;;;;18.20;99.90;;;;;;5070726;28;19912;-65
2022/09/13 02:35:30;;;;;;;;;;;18.30;99.90;;;;;;5069999;28;19966;-66
2022/09/13 02:38:28;;;;;;;;;;;18.30;99.90;;;;;;5072034;28;19916;-65
2022/09/13 02:40:59;;;;;;;;;;;18.20;99.90;;;;;;5019018;28;19913;-65
2022/09/13 02:43:36;;;;;;;;;;;18.30;99.90;;;;;;5073261;28;19916;-65
2022/09/13 02:46:16;;;;;;;;;;;18.30;99.90;;;;;;5073474;28;20005;-66
2022/09/13 02:48:41;;;;;;;;;;;18.30;99.90;;;;;;5054284;28;19927;-65
2022/09/13 02:51:14;;;;;;;;;;;18.30;99.90;;;;;;5069637;28;19991;-65
2022/09/13 02:53:49;;;;;;;;;;;18.30;99.90;;;;;;5053381;28;20440;-66
2022/09/13 02:56:14;;;;;;;;;;;18.30;99.90;;;;;;5071512;28;20009;-65
2022/09/13 02:58:45;;;;;;;;;;;18.40;99.90;;;;;;5069667;28;19962;-65
2022/09/13 03:01:11;;;;;;;;;;;18.50;99.90;;;;;;5069903;28;20382;-65
2022/09/13 03:03:36;;;;;;;;;;;18.40;99.90;;;;;;5067302;28;19955;-64
2022/09/13 03:06:02;;;;;;;;;;;18.40;99.90;;;;;;5066573;28;20370;-65
2022/09/13 03:08:28;;;;;;;;;;;18.30;99.90;;;;;;5066838;28;20482;-65
2022/09/13 03:11:17;;;;;;;;;;;18.30;99.90;;;;;;5066316;28;20463;-64
2022/09/13 03:13:54;;;;;;;;;;;18.30;99.90;;;;;;5040955;28;20382;-65
2022/09/13 03:16:23;;;;;;;;;;;18.30;99.90;;;;;;5067059;28;20025;-65
2022/09/13 03:19:06;;;;;;;;;;;18.30;99.90;;;;;;5058724;28;20249;-66
2022/09/13 03:21:39;;;;;;;;;;;18.20;99.90;;;;;;5062621;28;19928;-66
2022/09/13 03:24:22;;;;;;;;;;;18.20;99.90;;;;;;5064367;28;19913;-66
2022/09/13 03:26:51;;;;;;;;;;;18.20;99.90;;;;;;5064096;28;19916;-65
2022/09/13 03:29:22;;;;;;;;;;;18.20;99.90;;;;;;5065029;28;19920;-65
2022/09/13 03:31:53;;;;;;;;;;;18.20;99.90;;;;;;5067415;28;19913;-65
2022/09/13 03:34:19;;;;;;;;;;;18.20;99.90;;;;;;5066454;28;19916;-66
2022/09/13 03:36:46;;;;;;;;;;;18.10;99.90;;;;;;5070859;28;19921;-65
2022/09/13 03:39:30;;;;;;;;;;;18.10;99.90;;;;;;5067030;28;19927;-67
2022/09/13 03:41:58;;;;;;;;;;;18.00;99.90;;;;;;5067992;28;19912;-64
2022/09/13 03:44:25;;;;;;;;;;;18.10;99.90;;;;;;5067914;28;20018;-64
2022/09/13 03:46:53;;;;;;;;;;;18.10;99.90;;;;;;5063363;28;19914;-65
2022/09/13 03:49:19;;;;;;;;;;;18.10;99.90;;;;;;5066700;28;19917;-65
2022/09/13 03:51:46;;;;;;;;;;;18.00;99.90;;;;;;5066788;28;19968;-65
2022/09/13 03:54:17;;;;;;;;;;;17.90;99.90;;;;;;5066483;28;19995;-65
2022/09/13 03:56:43;;;;;;;;;;;17.90;99.90;;;;;;5067335;28;19966;-65
2022/09/13 03:59:08;;;;;;;;;;;17.90;99.90;;;;;;5047226;28;20454;-65
2022/09/13 04:01:34;;;;;;;;;;;17.90;99.90;;;;;;5068013;28;19912;-64
2022/09/13 04:03:59;;;;;;;;;;;17.80;99.90;;;;;;5065523;28;19912;-64
2022/09/13 04:06:25;;;;;;;;;;;17.70;99.90;;;;;;5060956;28;20031;-65
2022/09/13 04:08:50;;;;;;;;;;;17.70;99.90;;;;;;5066174;28;19924;-66
2022/09/13 04:11:16;;;;;;;;;;;17.70;99.90;;;;;;5064328;28;19961;-65
2022/09/13 04:13:41;;;;;;;;;;;17.60;99.90;;;;;;5062136;28;19916;-65
2022/09/13 04:16:07;;;;;;;;;;;17.60;99.90;;;;;;5061940;28;20390;-65
2022/09/13 04:18:33;;;;;;;;;;;17.50;99.90;;;;;;5061093;28;19920;-65
2022/09/13 04:20:59;;;;;;;;;;;17.40;99.90;;;;;;5055202;28;19916;-65
2022/09/13 04:23:26;;;;;;;;;;;17.30;99.90;;;;;;5063870;28;20058;-65
2022/09/13 04:25:52;;;;;;;;;;;17.30;99.90;;;;;;5063352;28;19952;-65
2022/09/13 04:28:18;;;;;;;;;;;17.30;99.90;;;;;;5050249;28;19931;-64
2022/09/13 04:30:44;;;;;;;;;;;17.40;99.90;;;;;;5067138;28;19923;-65
2022/09/13 04:33:09;;;;;;;;;;;17.30;99.90;;;;;;5039838;28;19920;-66
2022/09/13 04:35:35;;;;;;;;;;;17.30;99.90;;;;;;5059851;28;19913;-64
2022/09/13 04:38:00;;;;;;;;;;;17.10;99.90;;;;;;5059481;28;20378;-65
2022/09/13 04:40:26;;;;;;;;;;;17.20;99.90;;;;;;5067713;28;19913;-66
2022/09/13 04:42:51;;;;;;;;;;;17.10;99.90;;;;;;5059889;28;19917;-64
2022/09/13 04:45:17;;;;;;;;;;;17.00;99.90;;;;;;5069593;28;19916;-65
2022/09/13 04:47:42;;;;;;;;;;;17.00;99.90;;;;;;5057861;28;19968;-65
2022/09/13 04:50:08;;;;;;;;;;;17.00;99.90;;;;;;5049614;28;20002;-65
2022/09/13 04:52:34;;;;;;;;;;;16.90;99.90;;;;;;5061704;28;19912;-65
2022/09/13 04:55:00;;;;;;;;;;;16.80;99.90;;;;;;5062184;28;19920;-65
2022/09/13 04:57:27;;;;;;;;;;;16.70;99.90;;;;;;5060073;28;19912;-65
2022/09/13 04:59:52;;;;;;;;;;;16.70;99.90;;;;;;5054233;28;19912;-64
2022/09/13 05:02:18;;;;;;;;;;;16.70;99.90;;;;;;5042922;28;20410;-65
2022/09/13 05:04:43;;;;;;;;;;;16.60;99.90;;;;;;5067471;28;20377;-65
2022/09/13 05:07:09;;;;;;;;;;;16.60;99.90;;;;;;5065401;28;19930;-64
2022/09/13 05:09:34;;;;;;;;;;;16.50;99.90;;;;;;5064778;28;19966;-65
2022/09/13 05:12:00;;;;;;;;;;;16.50;99.90;;;;;;5059340;28;19938;-63
2022/09/13 05:14:25;;;;;;;;;;;16.50;99.90;;;;;;5069905;28;20034;-64
2022/09/13 05:16:51;;;;;;;;;;;16.50;99.90;;;;;;5067352;28;19934;-64
2022/09/13 05:19:17;;;;;;;;;;;16.50;99.90;;;;;;5064868;28;19920;-64
2022/09/13 05:21:42;;;;;;;;;;;16.50;99.90;;;;;;5062366;28;20364;-64
2022/09/13 05:24:08;;;;;;;;;;;16.60;99.90;;;;;;5068722;28;19919;-65
2022/09/13 05:26:34;;;;;;;;;;;16.50;99.90;;;;;;5068142;28;19919;-65
2022/09/13 05:28:59;;;;;;;;;;;16.60;99.90;;;;;;5073795;28;20329;-65
2022/09/13 05:31:27;;;;;;;;;;;16.60;99.90;;;;;;5070105;28;19951;-65
2022/09/13 05:33:55;;;;;;;;;;;16.60;99.90;;;;;;5067551;28;19948;-65
2022/09/13 05:36:21;;;;;;;;;;;16.50;99.90;;;;;;5067753;28;19928;-66
2022/09/13 05:38:46;;;;;;;;;;;16.50;99.90;;;;;;5058338;28;19917;-65
2022/09/13 05:41:11;;;;;;;;;;;16.50;99.90;;;;;;5060867;28;19946;-65
2022/09/13 05:43:37;;;;;;;;;;;16.50;99.90;;;;;;5064163;28;20322;-66
2022/09/13 05:46:06;;;;;;;;;;;16.50;99.90;;;;;;5071228;28;20077;-65
2022/09/13 05:48:33;;;;;;;;;;;16.50;99.90;;;;;;5066169;28;20386;-65
2022/09/13 05:51:09;;;;;;;;;;;16.50;99.90;;;;;;5062747;28;19965;-65
2022/09/13 05:53:35;;;;;;;;;;;16.50;99.90;;;;;;5061848;28;19923;-65
2022/09/13 05:56:01;;;;;;;;;;;16.40;99.90;;;;;;5068007;28;19912;-65
2022/09/13 05:58:26;;;;;;;;;;;16.30;99.90;;;;;;5068178;28;19927;-65
2022/09/13 06:00:55;;;;;;;;;;;16.30;99.90;;;;;;5063398;28;19991;-65
2022/09/13 06:03:21;;;;;;;;;;;16.40;99.90;;;;;;5064038;28;19912;-65
2022/09/13 06:05:47;;;;;;;;;;;16.30;99.90;;;;;;5060721;28;20314;-65
2022/09/13 06:08:12;;;;;;;;;;;16.40;99.90;;;;;;5063716;28;19934;-65
2022/09/13 06:10:38;;;;;;;;;;;16.40;99.90;;;;;;5060783;28;20240;-65
2022/09/13 06:13:03;;;;;;;;;;;16.30;99.90;;;;;;5064458;28;20160;-64
2022/09/13 06:15:29;;;;;;;;;;;16.30;99.90;;;;;;5069155;28;19959;-66
2022/09/13 06:17:54;;;;;;;;;;;16.30;99.90;;;;;;5068062;28;19921;-65
2022/09/13 06:20:20;;;;;;;;;;;16.50;99.90;;;;;;5066880;28;19919;-65
2022/09/13 06:22:48;;;;;;;;;;;16.50;99.90;;;;;;5061692;28;20351;-66
2022/09/13 06:25:15;;;;;;;;;;;16.40;99.90;;;;;;5065988;28;19917;-66
2022/09/13 06:27:40;;;;;;;;;;;16.50;99.90;;;;;;5061321;28;20023;-65
2022/09/13 06:30:07;;;;;;;;;;;16.50;99.90;;;;;;5071238;28;19913;-65
2022/09/13 06:32:33;;;;;;;;;;;16.50;99.90;;;;;;5051249;28;19916;-65
2022/09/13 06:34:59;;;;;;;;;;;16.40;99.90;;;;;;5043047;28;19912;-66
2022/09/13 06:37:24;;;;;;;;;;;16.40;99.90;;;;;;5063338;28;20398;-65
2022/09/13 06:39:50;;;;;;;;;;;16.40;99.90;;;;;;5061851;28;19951;-65
2022/09/13 06:42:16;;;;;;;;;;;16.50;99.90;;;;;;5065008;28;19912;-66
2022/09/13 06:44:41;;;;;;;;;;;16.40;99.90;;;;;;5071895;28;19927;-65
2022/09/13 06:47:07;;;;;;;;;;;16.40;99.90;;;;;;5069087;28;19920;-65
2022/09/13 06:49:32;;;;;;;;;;;16.30;99.90;;;;;;5066895;28;19913;-65
2022/09/13 06:51:57;;;;;;;;;;;16.40;99.90;;;;;;5065498;28;19936;-66
2022/09/13 06:54:23;;;;;;;;;;;16.30;99.90;;;;;;5064118;28;19928;-65
2022/09/13 06:56:49;;;;;;;;;;;16.30;99.90;;;;;;5063058;28;19920;-65
2022/09/13 06:59:14;;;;;;;;;;;16.40;99.90;;;;;;5059490;28;19985;-67
2022/09/13 07:01:43;;;;;;;;;;;16.50;99.90;;;;;;5061316;28;20406;-67
2022/09/13 07:04:11;;;;;;;;;;;16.50;99.90;;;;;;5062294;28;20276;-66
2022/09/13 07:06:38;;;;;;;;;;;16.70;99.90;;;;;;5066895;28;19920;-65
2022/09/13 07:09:04;;;;;;;;;;;16.80;99.90;;;;;;5068282;28;19920;-66
2022/09/13 07:11:32;;;;;;;;;;;16.70;99.90;;;;;;5071391;28;19908;-67
2022/09/13 07:13:58;;;;;;;;;;;16.70;99.90;;;;;;5067892;28;20371;-65
2022/09/13 07:16:25;;;;;;;;;;;16.60;99.90;;;;;;5070605;28;20003;-65
2022/09/13 07:18:52;;;;;;;;;;;16.60;99.90;;;;;;5050711;28;19947;-65
2022/09/13 07:21:18;;;;;;;;;;;16.60;99.90;;;;;;5065046;28;19921;-65
2022/09/13 07:23:43;;;;;;;;;;;16.60;99.90;;;;;;5062866;28;19919;-66
2022/09/13 07:26:09;;;;;;;;;;;16.70;99.90;;;;;;5052218;28;19913;-66
2022/09/13 07:28:39;;;;;;;;;;;16.60;99.90;;;;;;5054553;28;20446;-66
2022/09/13 07:31:07;;;;;;;;;;;16.60;99.90;;;;;;5072673;28;19913;-65
2022/09/13 07:33:33;;;;;;;;;;;16.50;99.90;;;;;;5063277;28;19924;-65
2022/09/13 07:36:05;;;;;;;;;;;16.50;99.90;;;;;;5049776;28;19912;-65
2022/09/13 07:38:31;;;;;;;;;;;16.60;99.90;;;;;;5067724;28;19909;-66
2022/09/13 07:40:58;;;;;;;;;;;16.60;99.90;;;;;;5068449;28;19913;-66
2022/09/13 07:43:24;;;;;;;;;;;16.70;99.90;;;;;;5070333;28;19948;-66
2022/09/13 07:46:00;;;;;;;;;;;16.80;99.90;;;;;;5069235;28;19912;-65
2022/09/13 07:48:26;;;;;;;;;;;16.80;99.90;;;;;;5068113;28;19924;-66
2022/09/13 07:51:05;;;;;;;;;;;16.80;99.90;;;;;;5069755;28;19912;-65
2022/09/13 07:53:31;;;;;;;;;;;16.80;99.90;;;;;;5065042;28;19913;-66
2022/09/13 07:56:04;;;;;;;;;;;16.80;99.90;;;;;;5049717;28;19912;-67
2022/09/13 07:58:30;;;;;;;;;;;16.80;99.90;;;;;;5066597;28;19912;-65
2022/09/13 08:00:59;;;;;;;;;;;16.80;99.90;;;;;;5067147;28;19915;-66
2022/09/13 08:03:25;;;;;;;;;;;16.80;99.90;;;;;;5065126;28;19913;-66
2022/09/13 08:05:50;;;;;;;;;;;17.00;99.90;;;;;;5066647;28;20008;-66
2022/09/13 08:08:16;;;;;;;;;;;17.00;99.90;;;;;;5067248;28;19925;-65
2022/09/13 08:10:41;;;;;;;;;;;17.10;99.90;;;;;;5048527;28;19920;-66
2022/09/13 08:13:07;;;;;;;;;;;17.10;99.90;;;;;;5066422;28;20435;-66
2022/09/13 08:15:32;;;;;;;;;;;17.00;99.90;;;;;;5066919;28;20026;-65
2022/09/13 08:17:58;;;;;;;;;;;16.90;99.90;;;;;;5062038;28;19968;-66
2022/09/13 08:20:23;;;;;;;;;;;16.80;99.90;;;;;;5066787;28;20036;-66
2022/09/13 08:22:49;;;;;;;;;;;17.00;99.90;;;;;;5068746;28;20021;-67
2022/09/13 08:25:15;;;;;;;;;;;17.10;99.90;;;;;;5066554;28;19913;-66
2022/09/13 08:27:40;;;;;;;;;;;17.20;99.90;;;;;;5060262;28;20435;-66
2022/09/13 08:30:06;;;;;;;;;;;17.20;99.90;;;;;;5064278;28;20003;-66
2022/09/13 08:32:31;;;;;;;;;;;17.20;99.90;;;;;;5066344;28;19913;-65
2022/09/13 08:34:57;;;;;;;;;;;17.20;99.90;;;;;;5065782;28;20057;-66
2022/09/13 08:37:22;;;;;;;;;;;17.00;99.90;;;;;;5071723;28;20033;-66
2022/09/13 08:39:48;;;;;;;;;;;17.00;99.90;;;;;;5063698;28;19913;-66
2022/09/13 08:42:23;;;;;;;;;;;17.10;99.90;;;;;;5071779;28;19923;-66
2022/09/13 08:44:51;;;;;;;;;;;17.10;99.90;;;;;;5065154;28;19912;-67
2022/09/13 08:47:23;;;;;;;;;;;17.00;99.90;;;;;;5064218;28;20006;-66
2022/09/13 08:49:50;;;;;;;;;;;17.00;99.90;;;;;;5061215;28;20255;-66
2022/09/13 08:52:29;;;;;;;;;;;17.00;99.90;;;;;;5037262;28;19913;-66
2022/09/13 08:54:56;;;;;;;;;;;17.10;99.90;;;;;;5066130;28;19916;-66
2022/09/13 08:57:25;;;;;;;;;;;17.20;99.90;;;;;;5067629;28;20007;-66
2022/09/13 08:59:56;;;;;;;;;;;17.20;99.90;;;;;;5065440;28;19920;-67
2022/09/13 09:02:28;;;;;;;;;;;17.10;99.90;;;;;;5070323;28;19913;-66
2022/09/13 09:05:20;;;;;;;;;;;17.00;99.90;;;;;;5069215;28;20252;-66
2022/09/13 09:07:49;;;;;;;;;;;17.00;99.90;;;;;;5037873;28;19927;-66
2022/09/13 09:10:16;;;;;;;;;;;17.00;99.90;;;;;;5073230;28;20005;-66
2022/09/13 09:12:44;;;;;;;;;;;17.10;99.90;;;;;;5066132;28;19921;-67
2022/09/13 09:15:10;;;;;;;;;;;17.20;99.90;;;;;;5065767;28;20108;-66
2022/09/13 09:17:50;;;;;;;;;;;17.00;99.90;;;;;;5069977;28;20049;-66
2022/09/13 09:20:16;;;;;;;;;;;16.90;99.90;;;;;;5068840;28;19952;-64
2022/09/13 09:22:42;;;;;;;;;;;16.90;99.90;;;;;;5066374;28;20456;-67
2022/09/13 09:25:09;;;;;;;;;;;16.90;99.90;;;;;;5054065;28;19958;-66
2022/09/13 09:27:35;;;;;;;;;;;16.80;99.90;;;;;;5072942;28;20383;-65
2022/09/13 09:30:00;;;;;;;;;;;16.90;99.90;;;;;;5069796;28;19919;-65
2022/09/13 09:32:43;;;;;;;;;;;17.00;99.90;;;;;;5066449;28;19993;-66
2022/09/13 09:35:14;;;;;;;;;;;17.20;99.90;;;;;;5070889;28;19995;-66
2022/09/13 09:37:40;;;;;;;;;;;17.40;99.90;;;;;;5074199;28;19914;-65
2022/09/13 09:40:09;;;;;;;;;;;17.30;99.90;;;;;;5068642;28;20371;-66
2022/09/13 09:42:39;;;;;;;;;;;17.20;99.90;;;;;;5070555;28;19951;-65
2022/09/13 09:45:17;;;;;;;;;;;17.10;99.90;;;;;;5053909;28;19908;-66
2022/09/13 09:47:48;;;;;;;;;;;17.20;99.90;;;;;;5072845;28;19921;-66
2022/09/13 09:50:16;;;;;;;;;;;17.40;99.90;;;;;;5064051;28;20032;-66
2022/09/13 09:52:42;;;;;;;;;;;17.40;99.90;;;;;;5072860;28;19912;-66
2022/09/13 09:55:22;;;;;;;;;;;17.40;99.90;;;;;;5069022;28;19909;-66
2022/09/13 09:57:56;;;;;;;;;;;17.30;99.90;;;;;;5070002;28;19913;-66
2022/09/13 10:00:23;;;;;;;;;;;17.20;99.90;;;;;;5067377;28;19908;-65
2022/09/13 10:02:53;;;;;;;;;;;17.20;99.90;;;;;;5070614;28;19962;-66
2022/09/13 10:05:19;;;;;;;;;;;17.10;99.90;;;;;;5072606;28;19954;-66
2022/09/13 10:07:53;;;;;;;;;;;17.10;99.90;;;;;;5069425;28;20343;-66
2022/09/13 10:10:20;;;;;;;;;;;17.10;99.90;;;;;;5065384;28;19933;-67
2022/09/13 10:12:48;;;;;;;;;;;17.20;99.90;;;;;;5067523;28;19916;-63
2022/09/13 10:15:19;;;;;;;;;;;17.40;99.90;;;;;;5064958;28;19920;-66
2022/09/13 10:17:59;;;;;;;;;;;17.40;99.90;;;;;;5064122;28;19924;-66
2022/09/13 10:20:25;;;;;;;;;;;17.40;99.90;;;;;;5064373;28;19913;-66
2022/09/13 10:23:10;;;;;;;;;;;17.40;99.90;;;;;;5050059;28;19924;-65
2022/09/13 10:25:36;;;;;;;;;;;17.50;99.90;;;;;;5069110;28;19924;-64
2022/09/13 10:28:03;;;;;;;;;;;17.60;99.90;;;;;;5065112;28;20002;-66
2022/09/13 10:30:45;;;;;;;;;;;17.60;99.90;;;;;;5039931;28;19913;-65
2022/09/13 10:33:36;;;;;;;;;;;17.60;99.90;;;;;;5066097;28;19912;-66
2022/09/13 10:36:04;;;;;;;;;;;17.60;99.90;;;;;;5041246;28;19916;-66
2022/09/13 10:38:30;;;;;;;;;;;17.50;99.90;;;;;;5069335;28;19924;-66
2022/09/13 10:40:56;;;;;;;;;;;17.60;99.90;;;;;;5065774;28;19912;-65
2022/09/13 10:43:23;;;;;;;;;;;17.70;99.90;;;;;;5063924;28;20035;-66
2022/09/13 10:45:50;;;;;;;;;;;17.80;99.90;;;;;;5065983;28;20279;-65
2022/09/13 10:48:16;;;;;;;;;;;17.90;99.90;;;;;;5059875;28;19920;-66
2022/09/13 10:51:02;;;;;;;;;;;17.90;99.90;;;;;;5050476;28;20052;-65
2022/09/13 10:53:37;;;;;;;;;;;17.80;99.90;;;;;;5061954;28;19934;-66
2022/09/13 10:56:03;;;;;;;;;;;17.80;99.90;;;;;;5063025;28;19912;-65
2022/09/13 10:58:29;;;;;;;;;;;17.80;99.90;;;;;;5067683;28;19967;-66
2022/09/13 11:01:07;;;;;;;;;;;17.70;99.90;;;;;;5066873;28;20375;-66
2022/09/13 11:03:58;;;;;;;;;;;17.70;99.90;;;;;;5066877;28;19930;-66
2022/09/13 11:06:30;;;;;;;;;;;17.60;99.90;;;;;;5034532;28;20104;-65
2022/09/13 11:09:00;;;;;;;;;;;17.70;99.90;;;;;;5049447;28;19943;-67
2022/09/13 11:11:28;;;;;;;;;;;17.60;99.90;;;;;;5067323;28;20316;-66
2022/09/13 11:13:57;;;;;;;;;;;17.50;99.90;;;;;;5061038;28;19912;-65
2022/09/13 11:16:46;;;;;;;;;;;17.50;99.90;;;;;;5047037;28;19916;-65
2022/09/13 11:19:30;;;;;;;;;;;17.50;99.90;;;;;;5053962;28;20148;-66
2022/09/13 11:21:56;;;;;;;;;;;17.60;99.90;;;;;;5063455;28;20283;-65
2022/09/13 11:24:21;;;;;;;;;;;17.60;99.90;;;;;;5067277;28;19916;-65
2022/09/13 11:27:03;;;;;;;;;;;17.60;99.90;;;;;;5065185;28;20000;-66
2022/09/13 11:29:41;;;;;;;;;;;17.60;99.90;;;;;;5067732;28;20382;-66
2022/09/13 11:32:12;;;;;;;;;;;17.60;99.90;;;;;;5067515;28;19916;-66
2022/09/13 11:34:56;;;;;;;;;;;17.70;99.90;;;;;;5061547;28;19924;-65
2022/09/13 11:37:27;;;;;;;;;;;17.70;99.90;;;;;;5064475;28;19966;-65
2022/09/13 11:40:08;;;;;;;;;;;17.60;99.90;;;;;;5064579;28;19913;-65
2022/09/13 11:42:40;;;;;;;;;;;17.60;99.90;;;;;;5063646;28;19913;-66
2022/09/13 11:45:25;;;;;;;;;;;17.70;99.90;;;;;;5063590;28;19975;-66
2022/09/13 11:48:05;;;;;;;;;;;17.80;99.90;;;;;;5065876;28;19920;-66
2022/09/13 11:50:37;;;;;;;;;;;17.70;99.90;;;;;;5062530;28;19935;-64
2022/09/13 11:53:08;;;;;;;;;;;17.80;99.90;;;;;;5047534;28;19912;-66
2022/09/13 11:55:37;;;;;;;;;;;17.80;99.90;;;;;;5065215;28;20019;-66
2022/09/13 11:58:07;;;;;;;;;;;17.90;99.90;;;;;;5059980;28;19912;-66
2022/09/13 12:00:40;;;;;;;;;;;18.00;99.90;;;;;;5066791;28;19923;-66
2022/09/13 12:03:11;;;;;;;;;;;17.90;99.90;;;;;;5051007;28;19997;-65
2022/09/13 12:05:51;;;;;;;;;;;17.80;99.90;;;;;;5063251;28;20001;-65
2022/09/13 12:08:18;;;;;;;;;;;17.80;99.90;;;;;;5063387;28;19936;-65
2022/09/13 12:10:44;;;;;;;;;;;17.60;99.90;;;;;;5063683;28;19919;-65
2022/09/13 12:13:13;;;;;;;;;;;17.60;99.90;;;;;;5062595;28;19912;-66
2022/09/13 12:15:40;;;;;;;;;;;17.50;99.90;;;;;;5058203;28;19920;-66
2022/09/13 12:18:19;;;;;;;;;;;17.50;99.90;;;;;;5046701;28;19958;-65
2022/09/13 12:20:57;;;;;;;;;;;17.40;99.90;;;;;;5051583;28;19923;-66
2022/09/13 12:23:34;;;;;;;;;;;17.30;99.90;;;;;;5069643;28;19966;-65
2022/09/13 12:26:17;;;;;;;;;;;17.50;99.90;;;;;;5047159;28;20304;-66
2022/09/13 12:28:45;;;;;;;;;;;17.40;99.90;;;;;;5065299;28;21896;-66
2022/09/13 12:31:18;;;;;;;;;;;17.50;99.90;;;;;;5064185;28;20299;-66
2022/09/13 12:33:44;;;;;;;;;;;17.60;99.90;;;;;;5060619;28;19912;-67
2022/09/13 12:36:16;;;;;;;;;;;17.70;99.90;;;;;;5067891;28;20823;-65
2022/09/13 12:38:47;;;;;;;;;;;17.60;99.90;;;;;;5068905;28;19912;-66
2022/09/13 12:41:28;;;;;;;;;;;17.70;99.90;;;;;;5066531;28;19913;-66
2022/09/13 12:44:02;;;;;;;;;;;17.70;99.90;;;;;;5069989;28;19924;-65
2022/09/13 12:46:40;;;;;;;;;;;17.80;99.90;;;;;;5044678;28;19917;-65
2022/09/13 12:49:24;;;;;;;;;;;17.90;99.90;;;;;;5066308;28;19936;-66
2022/09/13 12:52:08;;;;;;;;;;;18.10;99.90;;;;;;5066198;28;20443;-66
2022/09/13 12:54:34;;;;;;;;;;;18.30;99.90;;;;;;5068766;28;20015;-65
2022/09/13 12:56:59;;;;;;;;;;;18.30;99.90;;;;;;5069870;28;19931;-65
2022/09/13 12:59:25;;;;;;;;;;;18.30;99.90;;;;;;5067664;28;20287;-66
2022/09/13 13:01:51;;;;;;;;;;;18.10;99.90;;;;;;5068194;28;19984;-66
2022/09/13 13:04:26;;;;;;;;;;;18.20;99.90;;;;;;5067155;28;19920;-66
2022/09/13 13:06:54;;;;;;;;;;;18.20;99.90;;;;;;5068136;28;20073;-65
2022/09/13 13:09:29;;;;;;;;;;;18.30;99.90;;;;;;5071331;28;19928;-65
2022/09/13 13:11:56;;;;;;;;;;;18.40;99.90;;;;;;5069315;28;19920;-66
2022/09/13 13:14:41;;;;;;;;;;;18.40;99.90;;;;;;5069130;28;20371;-65
2022/09/13 13:17:25;;;;;;;;;;;18.50;99.90;;;;;;5069897;28;19934;-66
2022/09/13 13:19:51;;;;;;;;;;;18.50;99.90;;;;;;5069197;28;19921;-66
2022/09/13 13:22:35;;;;;;;;;;;18.60;99.90;;;;;;5068377;28;19912;-66
2022/09/13 13:25:19;;;;;;;;;;;18.50;99.90;;;;;;5069615;28;20480;-66
2022/09/13 13:27:48;;;;;;;;;;;18.60;99.90;;;;;;5065772;28;19931;-65
2022/09/13 13:30:32;;;;;;;;;;;18.60;99.90;;;;;;5069710;28;19920;-66
2022/09/13 13:33:05;;;;;;;;;;;18.60;99.90;;;;;;5068740;28;19956;-66
2022/09/13 13:35:31;;;;;;;;;;;18.50;99.90;;;;;;5067692;28;19920;-65
2022/09/13 13:38:13;;;;;;;;;;;18.50;99.90;;;;;;5063573;28;19912;-66
2022/09/13 13:40:39;;;;;;;;;;;18.40;99.90;;;;;;5042295;28;19920;-66
2022/09/13 13:43:16;;;;;;;;;;;18.50;99.90;;;;;;5067873;28;19920;-67
2022/09/13 13:45:55;;;;;;;;;;;18.40;99.90;;;;;;5065560;28;21873;-66
2022/09/13 13:48:38;;;;;;;;;;;18.50;99.90;;;;;;5066632;28;20278;-66
2022/09/13 13:51:10;;;;;;;;;;;18.50;99.90;;;;;;5063753;28;19920;-67
2022/09/13 13:53:36;;;;;;;;;;;18.40;99.90;;;;;;5065699;28;20364;-67
2022/09/13 13:56:20;;;;;;;;;;;18.70;99.90;;;;;;5067601;28;19927;-66
2022/09/13 13:59:06;;;;;;;;;;;18.80;99.90;;;;;;5068951;28;20379;-66
2022/09/13 14:01:35;;;;;;;;;;;18.90;99.90;;;;;;5044892;28;20359;-67
2022/09/13 14:04:09;;;;;;;;;;;18.80;99.90;;;;;;5067584;28;19920;-65
2022/09/13 14:07:01;;;;;;;;;;;18.80;99.90;;;;;;5067426;28;19920;-66
2022/09/13 14:09:44;;;;;;;;;;;18.90;99.90;;;;;;5066190;28;20031;-66
2022/09/13 14:12:16;;;;;;;;;;;18.80;99.90;;;;;;5066629;28;19944;-65
2022/09/13 14:15:00;;;;;;;;;;;18.80;99.90;;;;;;5067534;28;20006;-66
2022/09/13 14:17:28;;;;;;;;;;;18.70;99.90;;;;;;5045064;28;20045;-66
2022/09/13 14:19:57;;;;;;;;;;;18.80;99.90;;;;;;5066008;28;19924;-66
2022/09/13 14:22:24;;;;;;;;;;;18.80;99.90;;;;;;5069704;28;20347;-66
2022/09/13 14:24:51;;;;;;;;;;;18.70;99.90;;;;;;5048531;28;19912;-65
2022/09/13 14:27:16;;;;;;;;;;;18.80;99.90;;;;;;5062956;28;20221;-65
2022/09/13 14:29:45;;;;;;;;;;;18.90;99.90;;;;;;5063249;28;19917;-66
2022/09/13 14:32:15;;;;;;;;;;;18.80;99.90;;;;;;5068914;28;19970;-66
2022/09/13 14:34:48;;;;;;;;;;;19.00;99.90;;;;;;5066359;28;19920;-65